createdAt,value
2022-10-10T00:01:23.765Z,46.17
2022-10-10T00:03:54.800Z,46.24
2022-10-10T00:06:21.622Z,46.43
2022-10-10T00:08:48.541Z,46.13
2022-10-10T00:11:16.973Z,46.37
2022-10-10T00:13:47.059Z,46.21
2022-10-10T00:16:13.978Z,46.36
2022-10-10T00:18:41.733Z,46.47
2022-10-10T00:21:08.970Z,46.31
2022-10-10T00:23:36.023Z,46.58
2022-10-10T00:26:08.295Z,46.43
2022-10-10T00:28:38.368Z,46.77
2022-10-10T00:31:08.435Z,46.48
2022-10-10T00:33:36.095Z,46.73
2022-10-10T00:36:02.780Z,46.69
2022-10-10T00:38:29.534Z,46.72
2022-10-10T00:40:56.511Z,46.93
2022-10-10T00:43:25.445Z,46.99
2022-10-10T00:45:52.362Z,46.88
2022-10-10T00:48:29.492Z,46.84
2022-10-10T00:51:04.476Z,46.86
2022-10-10T00:53:34.660Z,47.03
2022-10-10T00:56:02.594Z,46.88
2022-10-10T00:58:29.545Z,46.98
2022-10-10T01:00:56.704Z,46.99
2022-10-10T01:03:23.975Z,47.06
2022-10-10T01:05:52.004Z,47.25
2022-10-10T01:08:19.966Z,47.43
2022-10-10T01:10:59.060Z,47.53
2022-10-10T01:13:58.247Z,47.57
2022-10-10T01:16:42.822Z,47.56
2022-10-10T01:19:21.360Z,47.50
2022-10-10T01:21:55.757Z,47.73
2022-10-10T01:24:50.199Z,47.45
2022-10-10T01:27:32.174Z,47.55
2022-10-10T01:30:21.602Z,47.74
2022-10-10T01:33:13.483Z,47.57
2022-10-10T01:35:55.649Z,47.70
2022-10-10T01:38:36.221Z,47.79
2022-10-10T01:41:09.746Z,48.07
2022-10-10T01:43:37.385Z,47.73
2022-10-10T01:46:12.806Z,47.77
2022-10-10T01:48:39.676Z,47.92
2022-10-10T01:51:36.118Z,47.93
2022-10-10T01:54:23.971Z,47.94
2022-10-10T01:57:18.206Z,48.02
2022-10-10T02:00:04.358Z,47.82
2022-10-10T02:02:45.977Z,47.95
2022-10-10T02:05:24.393Z,47.79
2022-10-10T02:07:53.829Z,48.09
2022-10-10T02:10:25.843Z,48.02
2022-10-10T02:12:54.725Z,48.43
2022-10-10T02:15:24.331Z,48.19
2022-10-10T02:17:52.340Z,48.26
2022-10-10T02:20:23.887Z,48.26
2022-10-10T02:22:51.816Z,48.46
2022-10-10T02:25:28.589Z,48.26
2022-10-10T02:28:06.984Z,48.51
2022-10-10T02:30:40.286Z,48.45
2022-10-10T02:33:08.347Z,48.51
2022-10-10T02:35:40.227Z,48.67
2022-10-10T02:38:09.343Z,48.51
2022-10-10T02:40:36.700Z,48.85
2022-10-10T02:43:06.270Z,48.85
2022-10-10T02:45:40.462Z,48.91
2022-10-10T02:48:07.588Z,48.82
2022-10-10T02:50:34.394Z,48.85
2022-10-10T02:53:00.882Z,49.11
2022-10-10T02:55:27.741Z,49.12
2022-10-10T02:57:54.257Z,49.05
2022-10-10T03:00:21.050Z,49.31
2022-10-10T03:02:47.646Z,49.20
2022-10-10T03:05:14.574Z,49.31
2022-10-10T03:07:41.074Z,49.25
2022-10-10T03:10:08.013Z,49.54
2022-10-10T03:12:35.461Z,49.38
2022-10-10T03:15:02.252Z,49.51
2022-10-10T03:17:28.791Z,49.75
2022-10-10T03:19:55.332Z,49.64
2022-10-10T03:22:21.950Z,49.79
2022-10-10T03:24:52.251Z,49.74
2022-10-10T03:27:18.717Z,50.07
2022-10-10T03:29:45.230Z,50.07
2022-10-10T03:32:11.786Z,49.81
2022-10-10T03:34:38.246Z,49.86
2022-10-10T03:37:04.830Z,50.07
2022-10-10T03:39:31.490Z,49.97
2022-10-10T03:41:58.214Z,50.24
2022-10-10T03:44:26.292Z,50.18
2022-10-10T03:46:52.799Z,50.10
2022-10-10T03:49:19.389Z,50.28
2022-10-10T03:51:45.912Z,50.62
2022-10-10T03:54:13.333Z,50.40
2022-10-10T03:56:39.813Z,50.58
2022-10-10T03:59:06.497Z,50.47
2022-10-10T04:01:33.632Z,50.55
2022-10-10T04:04:05.009Z,50.92
2022-10-10T04:06:31.487Z,50.50
2022-10-10T04:08:57.977Z,50.69
2022-10-10T04:11:24.527Z,50.80
2022-10-10T04:13:55.307Z,51.01
2022-10-10T04:16:22.028Z,51.07
2022-10-10T04:18:48.542Z,50.98
2022-10-10T04:21:15.123Z,50.84
2022-10-10T04:23:41.679Z,50.96
2022-10-10T04:26:08.567Z,51.24
2022-10-10T04:28:35.172Z,51.09
2022-10-10T04:31:01.720Z,51.07
2022-10-10T04:33:28.254Z,51.18
2022-10-10T04:35:54.742Z,51.29
2022-10-10T04:38:22.703Z,51.53
2022-10-10T04:40:50.687Z,51.49
2022-10-10T04:43:18.453Z,51.58
2022-10-10T04:45:46.577Z,51.67
2022-10-10T04:48:13.195Z,51.40
2022-10-10T04:50:40.293Z,51.48
2022-10-10T04:53:06.803Z,51.63
2022-10-10T04:55:37.565Z,51.83
2022-10-10T04:58:04.106Z,51.82
2022-10-10T05:00:30.613Z,51.92
2022-10-10T05:02:57.281Z,51.56
2022-10-10T05:05:28.111Z,51.86
2022-10-10T05:07:55.666Z,51.89
2022-10-10T05:10:23.017Z,51.94
2022-10-10T05:12:49.849Z,51.95
2022-10-10T05:15:17.855Z,52.14
2022-10-10T05:17:45.079Z,52.08
2022-10-10T05:20:11.645Z,52.00
2022-10-10T05:22:38.093Z,51.90
2022-10-10T05:25:04.993Z,52.31
2022-10-10T05:27:31.469Z,52.21
2022-10-10T05:29:57.934Z,52.22
2022-10-10T05:32:24.481Z,52.42
2022-10-10T05:34:52.200Z,52.41
2022-10-10T05:37:18.662Z,52.57
2022-10-10T05:39:45.269Z,52.67
2022-10-10T05:42:13.917Z,52.58
2022-10-10T05:44:42.303Z,52.39
2022-10-10T05:47:08.775Z,52.68
2022-10-10T05:49:35.324Z,52.76
2022-10-10T05:52:02.194Z,52.51
2022-10-10T05:54:32.011Z,52.60
2022-10-10T05:56:58.525Z,52.75
2022-10-10T05:59:25.237Z,52.73
2022-10-10T06:01:51.898Z,52.78
2022-10-10T06:04:23.415Z,53.04
2022-10-10T06:06:50.770Z,53.16
2022-10-10T06:09:17.400Z,53.24
2022-10-10T06:11:43.867Z,53.25
2022-10-10T06:14:11.416Z,53.05
2022-10-10T06:16:39.525Z,53.20
2022-10-10T06:19:06.282Z,53.35
2022-10-10T06:21:32.772Z,53.36
2022-10-10T06:24:01.182Z,53.38
2022-10-10T06:26:27.710Z,53.37
2022-10-10T06:28:54.256Z,53.53
2022-10-10T06:31:20.928Z,53.46
2022-10-10T06:33:53.128Z,53.44
2022-10-10T06:36:19.624Z,53.61
2022-10-10T06:38:46.221Z,53.78
2022-10-10T06:41:13.323Z,53.59
2022-10-10T06:43:41.364Z,53.74
2022-10-10T06:46:10.748Z,53.87
2022-10-10T06:48:37.717Z,53.96
2022-10-10T06:51:07.291Z,54.16
2022-10-10T06:53:34.591Z,54.16
2022-10-10T06:56:01.696Z,54.07
2022-10-10T06:58:29.269Z,54.15
2022-10-10T07:01:00.306Z,54.33
2022-10-10T07:03:28.972Z,54.44
2022-10-10T07:06:01.258Z,54.40
2022-10-10T07:08:28.623Z,54.63
2022-10-10T07:10:55.189Z,54.55
2022-10-10T07:13:21.673Z,54.72
2022-10-10T07:15:49.474Z,54.72
2022-10-10T07:18:18.630Z,54.97
2022-10-10T07:20:45.140Z,54.74
2022-10-10T07:23:11.612Z,55.14
2022-10-10T07:25:40.493Z,54.98
2022-10-10T07:28:08.366Z,54.72
2022-10-10T07:30:48.169Z,54.59
2022-10-10T07:33:15.615Z,54.53
2022-10-10T07:35:42.702Z,54.45
2022-10-10T07:38:11.550Z,54.43
2022-10-10T07:40:40.434Z,54.55
2022-10-10T07:43:07.050Z,54.27
2022-10-10T07:45:36.494Z,54.29
2022-10-10T07:48:03.672Z,53.98
2022-10-10T07:50:30.361Z,54.27
2022-10-10T07:52:56.826Z,54.15
2022-10-10T07:55:23.563Z,54.56
2022-10-10T07:57:53.428Z,54.63
2022-10-10T08:00:20.578Z,54.92
2022-10-10T08:02:47.078Z,54.94
2022-10-10T08:05:15.152Z,54.81
2022-10-10T08:07:41.667Z,54.57
2022-10-10T08:10:09.833Z,54.32
2022-10-10T08:12:36.299Z,54.58
2022-10-10T08:15:07.297Z,54.25
2022-10-10T08:17:33.921Z,53.86
2022-10-10T08:20:00.474Z,53.69
2022-10-10T08:22:26.989Z,54.01
2022-10-10T08:24:55.214Z,53.78
2022-10-10T08:27:22.036Z,53.59
2022-10-10T08:29:48.883Z,53.12
2022-10-10T08:32:18.483Z,52.91
2022-10-10T08:34:48.084Z,52.73
2022-10-10T08:37:14.553Z,52.19
2022-10-10T08:39:41.010Z,52.34
2022-10-10T08:42:16.753Z,51.96
2022-10-10T08:44:43.681Z,52.15
2022-10-10T08:47:10.106Z,52.01
2022-10-10T08:49:36.586Z,51.68
2022-10-10T08:52:13.847Z,51.29
2022-10-10T08:54:42.640Z,51.42
2022-10-10T08:57:24.769Z,51.44
2022-10-10T08:59:55.699Z,51.16
2022-10-10T09:02:53.156Z,50.80
2022-10-10T09:05:38.335Z,50.43
2022-10-10T09:08:13.939Z,50.13
2022-10-10T09:10:56.881Z,50.06
2022-10-10T09:13:35.624Z,50.15
2022-10-10T09:16:36.760Z,50.06
2022-10-10T09:19:35.445Z,49.82
2022-10-10T09:22:11.230Z,49.70
2022-10-10T09:24:48.448Z,49.68
2022-10-10T09:27:22.415Z,49.33
2022-10-10T09:29:58.032Z,49.58
2022-10-10T09:32:30.866Z,49.42
2022-10-10T09:35:05.831Z,49.22
2022-10-10T09:37:53.431Z,48.68
2022-10-10T09:40:28.464Z,48.90
2022-10-10T09:42:56.345Z,48.70
2022-10-10T09:45:29.086Z,48.76
2022-10-10T09:47:56.160Z,48.60
2022-10-10T09:50:23.880Z,48.23
2022-10-10T09:52:52.138Z,48.38
2022-10-10T09:55:46.290Z,47.95
2022-10-10T09:58:35.446Z,48.27
2022-10-10T10:01:20.265Z,48.15
2022-10-10T10:04:27.090Z,48.20
2022-10-10T10:07:25.125Z,47.93
2022-10-10T10:09:54.688Z,47.98
2022-10-10T10:12:25.270Z,47.85
2022-10-10T10:15:00.475Z,47.57
2022-10-10T10:17:27.275Z,47.59
2022-10-10T10:19:54.046Z,47.45
2022-10-10T10:22:26.767Z,47.26
2022-10-10T10:24:54.454Z,47.17
2022-10-10T10:27:23.913Z,47.19
2022-10-10T10:29:53.138Z,46.90
2022-10-10T10:32:51.767Z,47.11
2022-10-10T10:35:30.254Z,47.13
2022-10-10T10:38:27.401Z,47.06
2022-10-10T10:41:17.198Z,47.29
2022-10-10T10:44:04.819Z,47.33
2022-10-10T10:46:38.703Z,47.30
2022-10-10T10:49:16.768Z,47.20
2022-10-10T10:51:53.393Z,47.03
2022-10-10T10:54:50.362Z,46.60
2022-10-10T10:58:00.005Z,46.58
2022-10-10T11:05:19.507Z,46.65
2022-10-10T11:06:59.959Z,46.16
2022-10-10T11:09:50.237Z,46.07
2022-10-10T11:12:54.569Z,45.81
2022-10-10T11:15:30.767Z,45.88
2022-10-10T11:18:15.894Z,45.50
2022-10-10T11:20:47.657Z,45.23
2022-10-10T11:23:24.364Z,44.82
2022-10-10T11:26:05.962Z,44.79
2022-10-10T11:28:49.421Z,44.53
2022-10-10T11:31:26.539Z,44.62
2022-10-10T11:34:11.155Z,44.46
2022-10-10T11:36:41.363Z,44.54
2022-10-10T11:39:22.599Z,44.37
2022-10-10T11:41:55.416Z,44.16
2022-10-10T11:44:42.886Z,44.06
2022-10-10T11:47:27.034Z,43.70
2022-10-10T11:50:27.832Z,43.35
2022-10-10T11:53:05.296Z,43.32
2022-10-10T11:55:53.358Z,43.15
2022-10-10T11:58:33.317Z,42.92
2022-10-10T12:01:06.929Z,42.90
2022-10-10T12:03:33.442Z,42.84
2022-10-10T12:06:20.456Z,42.59
2022-10-10T12:09:26.254Z,42.51
2022-10-10T12:12:07.725Z,42.34
2022-10-10T12:14:45.595Z,42.45
2022-10-10T12:17:21.859Z,42.11
2022-10-10T12:19:50.984Z,42.02
2022-10-10T12:22:28.554Z,41.75
2022-10-10T12:25:20.058Z,41.73
2022-10-10T12:28:21.363Z,41.50
2022-10-10T12:30:58.544Z,41.54
2022-10-10T12:33:31.372Z,41.27
2022-10-10T12:36:17.866Z,41.41
2022-10-10T12:39:10.374Z,41.11
2022-10-10T12:41:47.145Z,41.41
2022-10-10T12:44:14.857Z,41.42
2022-10-10T12:46:43.035Z,41.26
2022-10-10T12:49:23.700Z,41.25
2022-10-10T12:52:20.434Z,41.24
2022-10-10T12:54:47.965Z,41.52
2022-10-10T12:57:28.119Z,41.63
2022-10-10T12:59:57.671Z,41.55
2022-10-10T13:02:28.304Z,41.55
2022-10-10T13:05:00.697Z,41.87
2022-10-10T13:07:27.819Z,41.76
2022-10-10T13:10:03.321Z,41.79
2022-10-10T13:12:32.215Z,41.91
2022-10-10T13:15:01.793Z,41.92
2022-10-10T13:17:36.474Z,42.03
2022-10-10T13:20:05.383Z,42.28
2022-10-10T13:22:35.965Z,42.31
2022-10-10T13:25:11.345Z,42.53
2022-10-10T13:27:37.909Z,42.71
2022-10-10T13:30:05.385Z,42.80
2022-10-10T13:32:34.903Z,42.95
2022-10-10T13:35:13.026Z,43.22
2022-10-10T13:37:41.521Z,43.25
2022-10-10T13:40:14.837Z,43.40
2022-10-10T13:42:41.736Z,43.56
2022-10-10T13:45:30.816Z,43.71
2022-10-10T13:48:00.295Z,43.92
2022-10-10T13:50:28.688Z,44.26
2022-10-10T13:53:50.361Z,44.21
2022-10-10T13:56:26.781Z,44.46
2022-10-10T13:59:10.759Z,44.58
2022-10-10T14:01:48.716Z,44.60
2022-10-10T14:04:17.841Z,45.03
2022-10-10T14:07:12.091Z,45.02
2022-10-10T14:09:41.979Z,45.00
2022-10-10T14:12:45.314Z,45.08
2022-10-10T14:15:42.530Z,45.46
2022-10-10T14:18:24.270Z,45.18
2022-10-10T14:20:52.039Z,45.32
2022-10-10T14:23:19.064Z,45.65
2022-10-10T14:25:48.859Z,45.29
2022-10-10T14:28:24.005Z,45.95
2022-10-10T14:30:50.655Z,46.29
2022-10-10T14:33:19.521Z,46.53
2022-10-10T14:35:49.659Z,46.90
2022-10-10T14:38:16.466Z,47.13
2022-10-10T14:40:45.567Z,47.33
2022-10-10T14:43:12.339Z,47.51
2022-10-10T14:45:49.185Z,47.69
2022-10-10T14:48:15.648Z,47.85
2022-10-10T14:50:45.647Z,47.76
2022-10-10T14:53:13.237Z,48.09
2022-10-10T14:55:44.182Z,48.34
2022-10-10T14:58:28.876Z,48.61
2022-10-10T15:00:55.452Z,48.42
2022-10-10T15:03:22.036Z,48.76
2022-10-10T15:05:49.401Z,48.95
2022-10-10T15:08:18.280Z,49.40
2022-10-10T15:10:45.438Z,49.88
2022-10-10T15:13:12.432Z,49.97
2022-10-10T15:15:39.429Z,50.58
2022-10-10T15:18:15.422Z,50.59
2022-10-10T15:20:52.563Z,50.86
2022-10-10T15:23:19.157Z,50.95
2022-10-10T15:25:46.854Z,51.40
2022-10-10T15:28:13.545Z,51.16
2022-10-10T15:30:43.018Z,51.56
2022-10-10T15:33:09.794Z,51.34
2022-10-10T15:36:03.951Z,51.96
2022-10-10T15:38:24.722Z,52.01
2022-10-10T15:41:05.564Z,52.36
2022-10-10T15:43:41.353Z,52.27
2022-10-10T15:46:09.797Z,52.59
2022-10-10T15:48:36.313Z,52.74
2022-10-10T15:51:07.058Z,52.57
2022-10-10T15:53:33.626Z,52.56
2022-10-10T15:56:10.007Z,53.24
2022-10-10T15:58:37.953Z,53.04
2022-10-10T16:01:19.111Z,53.40
2022-10-10T16:03:48.474Z,53.33
2022-10-10T16:06:16.771Z,53.09
2022-10-10T16:08:44.104Z,53.08
2022-10-10T16:11:15.287Z,53.23
2022-10-10T16:13:42.842Z,53.51
2022-10-10T16:16:11.268Z,53.28
2022-10-10T16:18:40.460Z,53.32
2022-10-10T16:21:13.917Z,53.49
2022-10-10T16:23:40.448Z,53.47
2022-10-10T16:26:10.379Z,53.38
2022-10-10T16:28:36.970Z,53.38
2022-10-10T16:31:07.512Z,53.27
2022-10-10T16:33:36.403Z,53.79
2022-10-10T16:36:10.371Z,53.30
2022-10-10T16:38:37.331Z,53.47
2022-10-10T16:41:23.632Z,53.51
2022-10-10T16:43:58.584Z,53.71
2022-10-10T16:46:27.136Z,53.28
2022-10-10T16:48:57.535Z,53.49
2022-10-10T16:51:24.438Z,53.40
2022-10-10T16:54:01.625Z,53.70
2022-10-10T16:56:29.702Z,53.69
2022-10-10T16:58:59.092Z,53.51
2022-10-10T17:01:25.700Z,53.35
2022-10-10T17:03:54.335Z,53.17
2022-10-10T17:06:23.297Z,53.46
2022-10-10T17:08:52.109Z,53.25
2022-10-10T17:11:21.420Z,53.39
2022-10-10T17:13:51.707Z,53.62
2022-10-10T17:16:59.924Z,53.46
2022-10-10T17:19:08.762Z,53.63
2022-10-10T17:21:35.239Z,53.65
2022-10-10T17:24:06.016Z,53.46
2022-10-10T17:26:32.582Z,53.31
2022-10-10T17:28:59.762Z,53.68
2022-10-10T17:31:27.077Z,53.23
2022-10-10T17:34:02.743Z,53.52
2022-10-10T17:36:29.227Z,53.43
2022-10-10T17:38:56.263Z,53.48
2022-10-10T17:41:23.534Z,53.05
2022-10-10T17:43:53.990Z,53.14
2022-10-10T17:46:39.805Z,53.17
2022-10-10T17:49:09.226Z,52.93
2022-10-10T17:51:36.322Z,53.25
2022-10-10T17:54:07.512Z,53.25
2022-10-10T17:56:35.028Z,53.19
2022-10-10T17:59:02.316Z,52.90
2022-10-10T18:01:30.618Z,53.28
2022-10-10T18:03:59.544Z,52.92
2022-10-10T18:06:26.558Z,53.17
2022-10-10T18:08:53.872Z,53.06
2022-10-10T18:11:23.179Z,52.86
2022-10-10T18:13:53.354Z,53.00
2022-10-10T18:16:22.328Z,53.06
2022-10-10T18:18:51.916Z,53.21
2022-10-10T18:21:20.968Z,53.06
2022-10-10T18:23:52.206Z,53.08
2022-10-10T18:26:22.275Z,53.27
2022-10-10T18:28:49.782Z,53.38
2022-10-10T18:31:19.559Z,53.15
2022-10-10T18:33:49.939Z,53.59
2022-10-10T18:36:22.163Z,53.57
2022-10-10T18:38:49.202Z,53.38
2022-10-10T18:41:18.547Z,53.59
2022-10-10T18:43:53.422Z,53.42
2022-10-10T18:46:22.073Z,53.63
2022-10-10T18:48:53.555Z,53.60
2022-10-10T18:51:24.634Z,53.13
2022-10-10T18:54:07.761Z,53.34
2022-10-10T18:56:36.617Z,53.37
2022-10-10T18:59:06.000Z,53.25
2022-10-10T19:01:36.519Z,53.57
2022-10-10T19:04:08.890Z,53.41
2022-10-10T19:06:37.147Z,53.52
2022-10-10T19:09:05.943Z,53.54
2022-10-10T19:11:35.080Z,53.74
2022-10-10T19:14:08.011Z,53.98
2022-10-10T19:16:35.681Z,54.14
2022-10-10T19:19:03.195Z,54.45
2022-10-10T19:21:32.804Z,54.04
2022-10-10T19:24:06.566Z,54.24
2022-10-10T19:26:34.186Z,54.41
2022-10-10T19:29:06.617Z,54.54
2022-10-10T19:31:33.599Z,54.33
2022-10-10T19:34:01.739Z,54.38
2022-10-10T19:36:28.608Z,54.33
2022-10-10T19:38:55.923Z,54.26
2022-10-10T19:41:22.511Z,54.36
2022-10-10T19:44:14.161Z,54.58
2022-10-10T19:46:40.709Z,54.74
2022-10-10T19:49:07.269Z,54.52
2022-10-10T19:51:33.729Z,54.75
2022-10-10T19:54:01.853Z,54.99
2022-10-10T19:56:28.336Z,54.67
2022-10-10T19:58:56.818Z,54.75
2022-10-10T20:01:29.015Z,54.76
2022-10-10T20:03:58.666Z,54.73
2022-10-10T20:06:26.013Z,55.05
2022-10-10T20:08:52.758Z,54.93
2022-10-10T20:11:20.285Z,55.10
2022-10-10T20:13:53.098Z,54.82
2022-10-10T20:16:20.049Z,55.05
2022-10-10T20:18:46.885Z,55.30
2022-10-10T20:21:17.615Z,55.35
2022-10-10T20:23:58.890Z,55.31
2022-10-10T20:26:26.677Z,55.16
2022-10-10T20:28:54.418Z,55.45
2022-10-10T20:31:34.887Z,55.45
2022-10-10T20:34:06.923Z,55.57
2022-10-10T20:36:34.497Z,54.99
2022-10-10T20:39:11.329Z,55.47
2022-10-10T20:41:39.083Z,55.33
2022-10-10T20:44:13.168Z,55.59
2022-10-10T20:46:41.882Z,55.76
2022-10-10T20:49:18.959Z,55.45
2022-10-10T20:51:49.550Z,55.20
2022-10-10T20:54:22.948Z,55.37
2022-10-10T20:56:49.863Z,55.65
2022-10-10T20:59:21.094Z,55.71
2022-10-10T21:01:47.799Z,55.41
2022-10-10T21:04:17.169Z,55.39
2022-10-10T21:06:43.744Z,55.49
2022-10-10T21:09:13.151Z,55.30
2022-10-10T21:11:39.921Z,55.55
2022-10-10T21:14:11.168Z,55.50
2022-10-10T21:16:40.647Z,55.44
2022-10-10T21:19:12.359Z,55.47
2022-10-10T21:21:39.223Z,55.44
2022-10-10T21:24:13.340Z,55.27
2022-10-10T21:26:41.838Z,55.24
2022-10-10T21:29:08.688Z,55.23
2022-10-10T21:31:38.016Z,54.83
2022-10-10T21:34:13.331Z,55.11
2022-10-10T21:36:40.301Z,54.62
2022-10-10T21:39:07.246Z,54.94
2022-10-10T21:41:34.026Z,54.79
2022-10-10T21:44:03.950Z,54.68
2022-10-10T21:46:36.256Z,55.20
2022-10-10T21:49:05.811Z,54.96
2022-10-10T21:51:35.545Z,54.81
2022-10-10T21:54:07.451Z,54.75
2022-10-10T21:56:34.248Z,54.97
2022-10-10T21:59:01.568Z,54.71
2022-10-10T22:01:29.381Z,55.01
2022-10-10T22:03:56.627Z,54.86
2022-10-10T22:06:24.387Z,54.95
2022-10-10T22:08:52.477Z,54.74
2022-10-10T22:11:23.237Z,54.41
2022-10-10T22:13:53.576Z,54.36
2022-10-10T22:16:20.939Z,54.18
2022-10-10T22:18:47.867Z,54.48
2022-10-10T22:21:16.128Z,54.44
2022-10-10T22:23:44.218Z,54.33
2022-10-10T22:26:13.915Z,54.56
2022-10-10T22:28:40.640Z,54.38
2022-10-10T22:31:12.358Z,54.57
2022-10-10T22:33:39.208Z,54.54
2022-10-10T22:36:06.887Z,54.26
2022-10-10T22:38:37.967Z,54.65
2022-10-10T22:41:04.552Z,54.48
2022-10-10T22:43:31.081Z,54.33
2022-10-10T22:45:58.656Z,54.53
2022-10-10T22:48:25.329Z,54.44
2022-10-10T22:51:07.657Z,54.72
2022-10-10T22:53:34.145Z,54.54
2022-10-10T22:56:03.366Z,54.46
2022-10-10T22:58:31.818Z,54.46
2022-10-10T23:01:06.766Z,54.85
2022-10-10T23:03:33.412Z,54.61
2022-10-10T23:06:00.675Z,54.79
2022-10-10T23:08:27.217Z,54.46
2022-10-10T23:10:53.770Z,54.54
2022-10-10T23:13:20.360Z,54.59
2022-10-10T23:15:47.950Z,54.80
2022-10-10T23:18:14.471Z,54.65
2022-10-10T23:20:41.102Z,54.80
2022-10-10T23:23:08.694Z,54.79
2022-10-10T23:25:40.542Z,54.75
2022-10-10T23:28:07.228Z,54.70
2022-10-10T23:30:33.737Z,54.56
2022-10-10T23:33:00.210Z,54.56
2022-10-10T23:35:30.816Z,54.76
2022-10-10T23:37:57.552Z,54.85
2022-10-10T23:40:24.235Z,54.85
2022-10-10T23:42:50.696Z,54.76
2022-10-10T23:45:18.556Z,54.94
2022-10-10T23:47:45.600Z,54.92
2022-10-10T23:50:12.175Z,54.61
2022-10-10T23:52:39.568Z,54.82
2022-10-10T23:55:10.135Z,54.73
2022-10-10T23:57:36.578Z,54.51
